Time;durP1;ratioP1;P1;durP2;ratioP2;P2;SDS_P1;SDS_P2;PMS_P1;PMS_P2;Temp;Humidity;BMP_temperature;BMP_pressure;BME280_temperature;BME280_humidity;BME280_pressure;Samples;Min_cycle;Max_cycle;Signal;HPM_P1;HPM_P2
2021/07/28 00:01:28;;;;;;;13.43;12.07;;;;;;;19.71;73.07;101126.41;3586499;40;20222;-75
2021/07/28 00:03:53;;;;;;;14.77;13.30;;;;;;;19.95;71.74;101119.13;3580475;40;20225;-75
2021/07/28 00:06:22;;;;;;;14.20;12.80;;;;;;;19.99;71.26;101120.78;3580008;40;20229;-75
2021/07/28 00:08:49;;;;;;;14.53;13.13;;;;;;;19.78;72.25;101115.03;3579950;40;20245;-74
2021/07/28 00:11:15;;;;;;;14.33;12.93;;;;;;;19.97;71.41;101116.50;3579987;40;20266;-75
2021/07/28 00:13:41;;;;;;;14.67;13.10;;;;;;;19.75;71.73;101112.47;3587850;40;20616;-75
2021/07/28 00:16:11;;;;;;;12.90;11.60;;;;;;;19.68;72.41;101109.13;3589968;40;20228;-75
2021/07/28 00:24:18;;;;;;;13.00;11.70;;;;;;;19.36;72.78;101103.47;3580197;40;20229;-75
2021/07/28 00:26:43;;;;;;;9.83;8.27;;;;;;;19.30;73.29;101107.88;3580017;40;20226;-75
2021/07/28 00:29:08;;;;;;;11.73;10.47;;;;;;;19.49;72.39;101112.81;3579707;40;20244;-75
2021/07/28 00:31:34;;;;;;;10.23;9.00;;;;;;;19.32;72.88;101111.31;3588433;40;20698;-75
2021/07/28 00:33:59;;;;;;;11.80;10.63;;;;;;;19.31;72.48;101107.00;3579873;40;20233;-75
2021/07/28 00:36:24;;;;;;;10.87;9.77;;;;;;;19.29;73.00;101107.00;3579946;40;20616;-75
2021/07/28 00:38:49;;;;;;;9.10;8.17;;;;;;;19.19;73.41;101100.19;3579757;40;20286;-75
2021/07/28 00:41:15;;;;;;;11.27;10.07;;;;;;;19.44;72.80;101100.78;3579600;40;20225;-75
2021/07/28 00:43:40;;;;;;;10.90;9.80;;;;;;;19.38;72.83;101096.50;3580578;40;20281;-75
2021/07/28 00:46:06;;;;;;;10.57;9.57;;;;;;;19.28;73.29;101100.09;3580053;40;20226;-75
2021/07/28 00:48:31;;;;;;;11.10;10.00;;;;;;;19.36;72.97;101094.81;3579644;40;20634;-75
2021/07/28 00:50:57;;;;;;;11.30;10.20;;;;;;;19.24;73.29;101103.63;3579826;40;20233;-75
2021/07/28 00:53:23;;;;;;;9.43;8.43;;;;;;;19.15;73.65;101093.28;3587590;40;20604;-75
2021/07/28 00:55:50;;;;;;;11.23;10.17;;;;;;;19.43;72.56;101086.91;3589647;40;20233;-75
2021/07/28 00:58:17;;;;;;;10.33;9.30;;;;;;;19.44;72.59;101093.81;3581617;40;20632;-75
2021/07/28 01:00:43;;;;;;;11.50;10.30;;;;;;;19.31;73.02;101089.69;3579464;40;20230;-75
2021/07/28 01:03:09;;;;;;;9.43;8.53;;;;;;;19.34;72.72;101088.78;3586423;40;20224;-75
2021/07/28 01:05:34;;;;;;;9.77;8.87;;;;;;;19.22;73.24;101086.28;3589397;40;20233;-75
2021/07/28 01:08:00;;;;;;;11.83;10.07;;;;;;;19.14;73.53;101082.91;3589637;40;20939;-75
2021/07/28 01:10:25;;;;;;;11.73;10.50;;;;;;;19.31;73.15;101074.09;3589805;40;20225;-75
2021/07/28 01:12:53;;;;;;;10.80;9.57;;;;;;;19.25;72.65;101075.91;3583644;40;20226;-75
2021/07/28 01:16:01;;;;;;;11.73;10.63;;;;;;;19.25;72.91;101070.72;3579869;40;20254;-76
2021/07/28 01:18:08;;;;;;;9.87;8.97;;;;;;;19.27;72.75;101061.16;3583376;40;20241;-74
2021/07/28 01:20:39;;;;;;;10.97;9.60;;;;;;;19.40;72.67;101057.53;3584621;40;20252;-75
2021/07/28 01:23:09;;;;;;;10.37;9.37;;;;;;;19.14;73.14;101056.97;3587347;40;20261;-75
2021/07/28 01:25:35;;;;;;;8.77;7.87;;;;;;;18.99;73.72;101058.00;3589372;40;20596;-75
2021/07/28 01:28:02;;;;;;;8.77;7.97;;;;;;;18.89;73.99;101058.13;3589285;40;20245;-75
2021/07/28 01:30:28;;;;;;;11.83;9.03;;;;;;;19.04;73.59;101050.16;3589181;40;20619;-75
2021/07/28 01:32:55;;;;;;;11.17;9.03;;;;;;;19.08;73.76;101047.53;3584772;40;20226;-75
2021/07/28 01:35:21;;;;;;;11.23;10.13;;;;;;;19.14;73.42;101041.38;3579135;40;20222;-75
2021/07/28 01:37:47;;;;;;;11.13;9.27;;;;;;;19.20;73.29;101036.13;3578991;40;20245;-75
2021/07/28 01:40:13;;;;;;;11.00;9.90;;;;;;;19.34;72.24;101040.28;3578714;40;20240;-75
2021/07/28 01:42:40;;;;;;;12.87;10.07;;;;;;;19.49;72.00;101037.47;3578854;40;20230;-75
2021/07/28 01:45:05;;;;;;;10.60;9.57;;;;;;;19.32;72.41;101033.38;3578766;40;20331;-75
2021/07/28 01:47:31;;;;;;;10.43;9.43;;;;;;;19.04;73.15;101039.78;3578828;40;20242;-75
2021/07/28 01:49:56;;;;;;;8.33;7.53;;;;;;;18.86;74.11;101043.44;3579023;40;20222;-75
2021/07/28 01:52:21;;;;;;;10.50;9.50;;;;;;;18.84;74.01;101040.00;3582947;40;20240;-75
2021/07/28 01:54:46;;;;;;;11.40;10.30;;;;;;;18.98;73.60;101045.03;3589030;40;20241;-75
2021/07/28 01:57:11;;;;;;;11.07;9.80;;;;;;;18.82;73.71;101043.47;3582567;40;20327;-75
2021/07/28 01:59:40;;;;;;;11.83;10.70;;;;;;;18.72;74.26;101044.47;3578615;40;20225;-75
2021/07/28 02:02:06;;;;;;;8.60;7.73;;;;;;;18.66;74.38;101040.19;3582765;40;20310;-75
2021/07/28 02:04:31;;;;;;;10.17;9.27;;;;;;;18.71;73.73;101040.16;3587193;40;20267;-75
2021/07/28 02:06:56;;;;;;;11.53;9.17;;;;;;;18.85;74.34;101035.66;3588781;40;20266;-75
2021/07/28 02:09:21;;;;;;;10.40;9.30;;;;;;;18.88;72.86;101040.84;3588955;40;20577;-75
2021/07/28 02:11:46;;;;;;;13.80;12.40;;;;;;;18.64;74.71;101036.75;3579574;40;20233;-75
2021/07/28 02:14:12;;;;;;;14.17;11.43;;;;;;;18.78;74.68;101037.47;3577717;40;20240;-75
2021/07/28 02:16:37;;;;;;;11.90;9.80;;;;;;;18.88;74.29;101035.66;3578734;40;20289;-75
2021/07/28 02:19:02;;;;;;;10.50;9.50;;;;;;;18.63;75.19;101041.97;3577687;40;20249;-75
2021/07/28 02:21:27;;;;;;;11.43;10.33;;;;;;;18.67;74.57;101041.94;3578417;40;20240;-75
2021/07/28 02:23:53;;;;;;;11.63;10.43;;;;;;;18.84;74.05;101034.81;3587968;40;20237;-75
2021/07/28 02:26:18;;;;;;;11.43;10.23;;;;;;;18.76;74.18;101041.84;3588709;40;20579;-75
2021/07/28 02:28:43;;;;;;;10.97;9.77;;;;;;;18.81;74.04;101032.25;3588716;40;20253;-75
2021/07/28 02:31:08;;;;;;;11.30;10.20;;;;;;;19.02;73.64;101034.59;3588609;40;20500;-75
2021/07/28 02:33:34;;;;;;;10.87;9.63;;;;;;;18.99;73.29;101038.97;3588091;40;20240;-75
2021/07/28 02:35:59;;;;;;;10.10;9.10;;;;;;;18.87;73.95;101041.69;3588233;40;20229;-75
2021/07/28 02:38:24;;;;;;;14.13;9.60;;;;;;;18.87;74.03;101028.72;3587837;40;20245;-75
2021/07/28 02:40:49;;;;;;;9.60;8.53;;;;;;;18.73;74.23;101025.41;3588735;40;20236;-75
2021/07/28 02:43:15;;;;;;;9.70;8.80;;;;;;;18.63;74.91;101032.47;3581166;40;20222;-75
2021/07/28 02:45:40;;;;;;;8.70;7.80;;;;;;;18.58;75.10;101026.47;3578611;40;20233;-75
2021/07/28 02:48:05;;;;;;;11.10;9.93;;;;;;;18.61;75.20;101021.22;3578589;40;20233;-75
2021/07/28 02:50:32;;;;;;;11.60;10.40;;;;;;;18.76;74.58;101021.06;3578618;40;20323;-75
2021/07/28 02:52:57;;;;;;;11.80;10.67;;;;;;;18.68;74.79;101028.06;3578388;40;20627;-75
2021/07/28 02:55:23;;;;;;;8.90;8.00;;;;;;;18.56;75.26;101033.38;3578501;40;20315;-75
2021/07/28 02:57:48;;;;;;;12.20;10.80;;;;;;;18.74;75.13;101025.41;3578540;40;20249;-75
2021/07/28 03:00:14;;;;;;;11.83;9.87;;;;;;;18.81;74.35;101029.66;3578638;40;20225;-76
2021/07/28 03:02:39;;;;;;;14.37;11.20;;;;;;;19.10;73.47;101026.72;3578802;40;20230;-75
2021/07/28 03:05:04;;;;;;;11.30;10.10;;;;;;;18.80;74.38;101038.31;3578767;40;20218;-75
2021/07/28 03:07:33;;;;;;;12.03;10.83;;;;;;;18.66;74.67;101035.00;3578300;40;20234;-75
2021/07/28 03:09:58;;;;;;;10.43;9.33;;;;;;;18.83;74.13;101038.28;3580869;40;20516;-75
2021/07/28 03:12:23;;;;;;;11.93;10.67;;;;;;;18.97;73.53;101035.53;3587679;40;20225;-76
2021/07/28 03:14:49;;;;;;;14.20;12.53;;;;;;;19.15;73.11;101030.09;3578535;40;20244;-75
2021/07/28 03:17:16;;;;;;;10.53;9.43;;;;;;;18.90;73.48;101024.38;3578362;40;20213;-75
2021/07/28 03:19:41;;;;;;;12.27;11.00;;;;;;;18.97;73.08;101026.00;3578108;40;20587;-75
2021/07/28 03:22:06;;;;;;;12.13;10.73;;;;;;;18.54;74.40;101034.25;3579307;40;20234;-75
2021/07/28 03:24:32;;;;;;;9.63;8.63;;;;;;;18.32;75.10;101032.72;3578291;40;20848;-75
2021/07/28 03:26:57;;;;;;;11.83;9.20;;;;;;;18.22;75.50;101029.34;3578300;40;20257;-75
2021/07/28 03:29:23;;;;;;;13.63;11.23;;;;;;;18.44;75.45;101030.91;3578573;40;20255;-75
2021/07/28 03:31:49;;;;;;;10.87;9.77;;;;;;;18.38;75.18;101032.72;3581590;40;20800;-75
2021/07/28 03:34:14;;;;;;;10.70;9.70;;;;;;;18.31;75.61;101033.59;3582840;40;20237;-75
2021/07/28 03:36:40;;;;;;;13.03;11.63;;;;;;;18.68;74.88;101029.78;3578278;40;20249;-75
2021/07/28 03:39:05;;;;;;;12.00;10.63;;;;;;;18.73;74.29;101023.69;3578092;40;20289;-75
2021/07/28 03:41:30;;;;;;;11.50;10.23;;;;;;;18.73;74.11;101030.59;3579593;40;20240;-75
2021/07/28 03:43:55;;;;;;;12.23;11.03;;;;;;;18.54;74.66;101029.06;3588623;40;20692;-75
2021/07/28 03:46:21;;;;;;;11.80;10.50;;;;;;;18.47;75.09;101030.88;3590136;40;20217;-75
2021/07/28 03:48:46;;;;;;;11.90;10.60;;;;;;;18.51;74.80;101039.50;3588539;40;20248;-75
2021/07/28 03:51:11;;;;;;;11.77;10.57;;;;;;;18.40;75.43;101036.13;3587805;40;20330;-75
2021/07/28 03:53:36;;;;;;;10.43;9.27;;;;;;;18.47;75.33;101037.81;3588789;40;20506;-75
2021/07/28 03:56:02;;;;;;;10.57;9.43;;;;;;;18.55;74.87;101042.03;3587854;40;20229;-75
2021/07/28 03:58:27;;;;;;;14.33;10.47;;;;;;;18.62;74.41;101033.34;3587771;40;20261;-75
2021/07/28 04:00:53;;;;;;;12.73;11.43;;;;;;;19.05;72.55;101031.09;3587777;40;20233;-75
2021/07/28 04:03:18;;;;;;;11.20;10.10;;;;;;;18.69;73.86;101031.50;3578134;40;20499;-75
2021/07/28 04:05:43;;;;;;;12.37;10.17;;;;;;;18.82;73.09;101027.91;3578186;40;20218;-75
2021/07/28 04:08:09;;;;;;;12.30;10.33;;;;;;;18.76;73.85;101039.25;3576655;40;20248;-75
2021/07/28 04:10:35;;;;;;;9.97;8.97;;;;;;;18.56;74.29;101042.91;3577724;40;20569;-75
2021/07/28 04:13:00;;;;;;;10.97;9.87;;;;;;;18.57;74.40;101040.28;3582314;40;20238;-75
2021/07/28 04:15:25;;;;;;;10.70;9.63;;;;;;;18.49;74.66;101033.47;3578192;40;20218;-75
2021/07/28 04:17:50;;;;;;;9.83;8.77;;;;;;;18.67;73.51;101039.34;3577781;40;20612;-74
2021/07/28 04:20:16;;;;;;;12.67;10.77;;;;;;;18.61;74.10;101041.97;3577923;40;20242;-75
2021/07/28 04:22:42;;;;;;;11.63;10.17;;;;;;;19.06;71.84;101045.78;3583496;40;20238;-75
2021/07/28 04:25:09;;;;;;;10.97;9.87;;;;;;;19.06;72.32;101033.69;3578827;40;20254;-75
2021/07/28 04:27:34;;;;;;;10.17;9.17;;;;;;;18.93;72.73;101033.84;3583349;40;20248;-74
2021/07/28 04:29:59;;;;;;;10.53;9.10;;;;;;;18.68;73.38;101033.25;3578407;40;20701;-74
2021/07/28 04:32:25;;;;;;;10.03;9.10;;;;;;;18.82;73.39;101033.09;3579132;40;20230;-75
2021/07/28 04:34:50;;;;;;;10.53;9.43;;;;;;;18.86;72.93;101035.66;3579529;40;20218;-74
2021/07/28 04:37:16;;;;;;;9.27;8.20;;;;;;;18.94;72.88;101035.56;3579349;40;20245;-75
2021/07/28 04:39:42;;;;;;;9.67;7.33;;;;;;;18.92;72.52;101037.31;3578036;40;20226;-75
2021/07/28 04:42:07;;;;;;;9.30;8.33;;;;;;;18.99;72.46;101039.84;3579280;40;20238;-75
2021/07/28 04:44:32;;;;;;;9.90;8.57;;;;;;;19.26;71.02;101028.28;3579237;40;20241;-75
2021/07/28 04:46:58;;;;;;;9.30;8.40;;;;;;;19.06;71.49;101036.28;3578395;40;20481;-75
2021/07/28 04:49:23;;;;;;;12.23;9.23;;;;;;;19.15;71.38;101043.09;3564230;39;20265;-75
2021/07/28 04:51:48;;;;;;;10.50;9.50;;;;;;;18.95;71.54;101042.47;3579180;40;20230;-75
2021/07/28 04:54:14;;;;;;;9.37;8.47;;;;;;;18.98;71.49;101034.66;3579280;40;20222;-75
2021/07/28 04:56:39;;;;;;;11.17;8.87;;;;;;;18.82;72.07;101038.28;3579418;40;20236;-74
2021/07/28 04:59:05;;;;;;;9.67;8.53;;;;;;;18.89;72.29;101039.97;3578819;40;20244;-75
2021/07/28 05:01:30;;;;;;;10.53;8.50;;;;;;;19.00;71.45;101035.50;3579361;40;20318;-75
2021/07/28 05:03:55;;;;;;;9.70;8.80;;;;;;;18.89;71.92;101033.00;3579088;40;20574;-75
2021/07/28 05:06:20;;;;;;;9.30;8.33;;;;;;;18.93;71.70;101026.06;3579288;40;20222;-75
2021/07/28 05:08:45;;;;;;;9.00;7.30;;;;;;;18.73;73.30;101026.28;3579665;40;20246;-76
2021/07/28 05:11:11;;;;;;;9.57;7.60;;;;;;;18.82;72.63;101025.31;3578459;40;20623;-75
2021/07/28 05:13:36;;;;;;;8.73;7.77;;;;;;;18.99;71.87;101018.19;3579302;40;20226;-74
2021/07/28 05:16:02;;;;;;;8.93;8.03;;;;;;;19.19;71.04;101021.41;3579632;40;20229;-75
2021/07/28 05:18:27;;;;;;;7.70;6.80;;;;;;;19.00;71.55;101025.97;3579858;40;20245;-75
2021/07/28 05:20:52;;;;;;;8.60;7.80;;;;;;;19.02;72.05;101026.81;3578539;40;20237;-75
2021/07/28 05:23:18;;;;;;;10.03;8.47;;;;;;;19.31;70.59;101022.16;3579218;40;20229;-75
2021/07/28 05:25:43;;;;;;;9.53;8.47;;;;;;;19.13;70.97;101026.69;3579365;40;20229;-77
2021/07/28 05:28:08;;;;;;;9.23;7.83;;;;;;;19.29;70.46;101020.44;3579669;40;20327;-75
2021/07/28 05:30:34;;;;;;;9.73;8.73;;;;;;;19.31;70.39;101026.47;3579250;40;20571;-77
2021/07/28 05:32:59;;;;;;;8.60;7.80;;;;;;;19.16;70.57;101022.31;3578772;40;20221;-77
2021/07/28 05:35:25;;;;;;;10.83;8.57;;;;;;;19.19;70.64;101018.81;3579114;40;20232;-77
2021/07/28 05:37:58;;;;;;;11.97;9.17;;;;;;;19.35;70.41;101021.22;3579256;40;20543;-77
2021/07/28 05:40:23;;;;;;;8.73;7.83;;;;;;;19.16;70.80;101018.88;3578047;40;20333;-77
2021/07/28 05:42:48;;;;;;;9.90;8.90;;;;;;;19.23;70.46;101012.72;3578732;40;20238;-75
2021/07/28 05:45:13;;;;;;;11.33;9.00;;;;;;;19.44;70.05;101010.69;3579740;40;20593;-77
2021/07/28 05:47:39;;;;;;;9.50;8.50;;;;;;;19.56;69.70;101012.25;3581193;40;20241;-77
2021/07/28 05:50:04;;;;;;;9.73;8.73;;;;;;;19.63;69.51;101016.50;3581546;40;20234;-77
2021/07/28 05:52:30;;;;;;;9.30;8.40;;;;;;;19.66;69.20;101021.66;3579993;40;20623;-75
2021/07/28 05:54:55;;;;;;;10.07;8.97;;;;;;;19.63;69.02;101016.50;3579195;40;20616;-77
2021/07/28 05:57:20;;;;;;;12.07;9.20;;;;;;;19.51;69.16;101025.34;3579501;40;20536;-74
2021/07/28 05:59:45;;;;;;;9.63;8.70;;;;;;;19.43;69.48;101023.72;3579337;40;20230;-77
2021/07/28 06:02:11;;;;;;;9.70;8.53;;;;;;;19.48;70.42;101027.97;3579586;40;20221;-77
2021/07/28 06:04:36;;;;;;;11.43;9.00;;;;;;;19.76;69.26;101031.03;3581370;40;20210;-77
2021/07/28 06:07:01;;;;;;;10.63;9.50;;;;;;;19.84;69.22;101024.84;3580011;40;20244;-77
2021/07/28 06:09:27;;;;;;;10.13;8.37;;;;;;;19.89;69.18;101022.16;3580783;40;20232;-77
2021/07/28 06:11:52;;;;;;;13.93;10.33;;;;;;;19.93;68.02;101022.09;3584004;40;20241;-76
2021/07/28 06:14:17;;;;;;;10.87;9.20;;;;;;;20.08;67.24;101018.44;3584282;40;20226;-75
2021/07/28 06:16:42;;;;;;;10.97;9.80;;;;;;;19.90;67.79;101021.28;3584348;40;20210;-76
2021/07/28 06:19:08;;;;;;;11.60;9.90;;;;;;;20.00;67.67;101018.50;3581425;40;20307;-77
2021/07/28 06:21:35;;;;;;;13.67;10.20;;;;;;;19.98;68.19;101033.28;3580701;40;20241;-77
2021/07/28 06:24:00;;;;;;;10.97;9.80;;;;;;;20.15;67.18;101027.84;3581739;40;20222;-77
2021/07/28 06:26:26;;;;;;;11.73;9.53;;;;;;;20.18;67.68;101031.22;3581704;40;20221;-77
2021/07/28 06:28:51;;;;;;;13.50;10.23;;;;;;;20.27;65.78;101020.69;3581914;40;20347;-78
2021/07/28 06:31:16;;;;;;;13.13;10.13;;;;;;;20.10;66.15;101033.13;3582788;40;20214;-78
2021/07/28 06:33:42;;;;;;;12.33;10.77;;;;;;;20.32;66.41;101026.66;3582657;40;20237;-78
2021/07/28 06:36:07;;;;;;;11.63;9.90;;;;;;;20.42;66.37;101036.03;3582059;40;20605;-78
2021/07/28 06:38:32;;;;;;;13.73;11.00;;;;;;;20.45;66.14;101037.72;3581312;40;20253;-77
2021/07/28 06:40:57;;;;;;;14.83;11.07;;;;;;;20.46;64.84;101031.63;3581459;40;20601;-78
2021/07/28 06:43:23;;;;;;;14.00;11.23;;;;;;;20.49;65.46;101029.00;3583111;40;20241;-77
2021/07/28 06:45:48;;;;;;;14.23;11.27;;;;;;;20.44;65.84;101026.44;3582578;40;20619;-77
2021/07/28 06:48:13;;;;;;;15.63;12.30;;;;;;;20.51;65.57;101035.00;3581215;40;20249;-78
2021/07/28 06:50:38;;;;;;;14.27;11.57;;;;;;;20.60;64.79;101029.63;3581268;40;20244;-77
2021/07/28 06:53:04;;;;;;;12.70;10.70;;;;;;;20.71;65.34;101031.16;3582099;40;20287;-77
2021/07/28 06:55:29;;;;;;;13.43;10.60;;;;;;;20.64;64.73;101031.31;3580953;40;20481;-78
2021/07/28 08:16:18;;;;;;;9.80;6.87;;;;;;;21.23;60.40;101004.97;3607268;39;20560;-76
2021/07/28 08:18:43;;;;;;;6.20;5.60;;;;;;;21.43;60.49;101013.19;3607133;39;20235;-76
2021/07/28 08:21:10;;;;;;;7.23;6.47;;;;;;;21.49;60.17;101010.44;3606518;39;20526;-77
2021/07/28 08:23:46;;;;;;;8.93;6.30;;;;;;;21.62;59.67;101012.75;3606316;39;20239;-76
2021/07/28 08:26:13;;;;;;;6.73;6.03;;;;;;;21.66;59.47;101011.78;3606499;39;20224;-76
2021/07/28 08:28:39;;;;;;;6.60;5.90;;;;;;;21.62;59.58;101010.16;3606257;39;20244;-75
2021/07/28 08:31:04;;;;;;;6.53;5.90;;;;;;;21.54;59.03;101009.47;3606256;39;20316;-76
2021/07/28 08:33:29;;;;;;;7.07;6.20;;;;;;;21.68;59.21;101010.00;3606575;39;20219;-76
2021/07/28 08:35:56;;;;;;;6.70;5.77;;;;;;;21.93;57.83;101008.56;3606399;39;20590;-75
2021/07/28 08:38:22;;;;;;;6.20;5.60;;;;;;;22.08;57.44;101008.19;3606181;39;20280;-75
2021/07/28 08:40:59;;;;;;;5.77;5.17;;;;;;;22.13;57.16;101005.47;3606143;39;20272;-76
2021/07/28 08:43:28;;;;;;;5.70;5.20;;;;;;;22.41;57.56;100998.63;3606428;39;20231;-76
2021/07/28 08:45:55;;;;;;;6.80;5.60;;;;;;;22.69;56.05;101006.63;3606312;39;20223;-76
2021/07/28 08:48:22;;;;;;;7.27;5.50;;;;;;;22.88;55.37;101015.66;3606241;39;20628;-76
2021/07/28 08:50:48;;;;;;;6.80;5.40;;;;;;;22.93;55.63;101017.22;3606666;39;20216;-76
2021/07/28 08:53:13;;;;;;;5.73;4.97;;;;;;;22.94;55.90;101008.53;3606630;39;20232;-76
2021/07/28 08:55:39;;;;;;;7.27;5.30;;;;;;;23.05;54.63;101009.06;3606167;39;20224;-76
2021/07/28 08:58:12;;;;;;;6.27;5.57;;;;;;;22.99;55.13;101010.97;3606255;39;20255;-76
2021/07/28 09:00:42;;;;;;;5.53;4.90;;;;;;;22.97;55.61;101012.78;3606201;39;20276;-76
2021/07/28 09:03:07;;;;;;;5.23;4.73;;;;;;;23.05;55.83;101010.78;3606032;39;20224;-76
2021/07/28 09:05:44;;;;;;;7.27;5.73;;;;;;;23.24;54.58;101009.41;3606132;39;20224;-76
2021/07/28 09:08:29;;;;;;;5.93;4.80;;;;;;;23.43;54.03;101015.81;3605818;39;20293;-76
2021/07/28 09:10:56;;;;;;;6.03;5.43;;;;;;;23.35;53.94;101015.19;3605833;39;20849;-76
2021/07/28 09:13:30;;;;;;;6.17;5.07;;;;;;;23.21;53.50;101022.56;3605698;39;20699;-76
2021/07/28 09:16:18;;;;;;;6.20;5.60;;;;;;;23.12;54.79;101015.84;3606369;39;20223;-76
2021/07/28 09:18:47;;;;;;;6.20;5.63;;;;;;;23.20;53.72;101018.25;3606227;39;20255;-76
2021/07/28 09:21:18;;;;;;;5.43;4.97;;;;;;;23.12;54.43;101023.69;3606089;39;20625;-75
2021/07/28 09:23:44;;;;;;;6.40;5.63;;;;;;;23.03;53.99;101025.69;3606174;39;20211;-75
2021/07/28 09:27:01;;;;;;;6.50;5.87;;;;;;;22.80;55.29;101026.34;3602972;39;20221;-76
2021/07/28 09:29:21;;;;;;;5.80;5.20;;;;;;;22.73;54.99;101024.78;3599145;39;20619;-75
2021/07/28 09:31:52;;;;;;;5.60;5.10;;;;;;;22.60;55.88;101017.31;3598724;40;20223;-76
2021/07/28 09:34:24;;;;;;;5.07;4.60;;;;;;;22.56;56.34;101021.75;3598999;39;20247;-76
2021/07/28 09:36:54;;;;;;;6.00;5.10;;;;;;;22.71;56.25;101013.53;3599070;40;20236;-76
2021/07/28 09:39:26;;;;;;;6.83;5.17;;;;;;;23.10;54.69;101009.78;3598992;40;20241;-75
2021/07/28 09:41:55;;;;;;;7.47;5.57;;;;;;;23.17;53.61;101011.31;3599156;40;20224;-76
2021/07/28 09:44:24;;;;;;;6.13;5.40;;;;;;;23.01;54.08;101017.88;3599060;40;20259;-76
2021/07/28 09:47:03;;;;;;;6.13;5.53;;;;;;;22.97;54.08;101011.03;3598868;40;20594;-76
2021/07/28 09:49:29;;;;;;;6.07;5.47;;;;;;;23.09;53.52;101012.44;3598801;40;20236;-75
2021/07/28 09:51:54;;;;;;;6.47;5.63;;;;;;;23.14;53.31;101003.56;3599047;40;20217;-75
2021/07/28 09:54:19;;;;;;;6.40;5.63;;;;;;;23.37;52.99;101002.91;3597991;40;20244;-76
2021/07/28 09:56:54;;;;;;;6.47;5.87;;;;;;;23.59;53.85;100999.59;3598192;40;20236;-75
2021/07/28 09:59:19;;;;;;;7.07;5.93;;;;;;;23.83;52.81;100998.81;3598994;40;20241;-76
2021/07/28 10:01:46;;;;;;;5.43;4.93;;;;;;;24.03;50.62;100991.19;3598714;40;20228;-75
2021/07/28 10:04:13;;;;;;;7.33;5.60;;;;;;;24.31;50.13;100986.72;3598778;39;20231;-76
2021/07/28 10:06:41;;;;;;;6.07;5.47;;;;;;;24.52;50.26;100988.63;3598617;39;20233;-76
2021/07/28 10:09:09;;;;;;;6.50;5.80;;;;;;;24.54;49.42;100989.41;3598706;40;20252;-76
2021/07/28 10:11:37;;;;;;;6.27;5.50;;;;;;;24.53;49.19;100987.69;3598715;39;20221;-75
2021/07/28 10:14:03;;;;;;;6.70;5.97;;;;;;;24.15;48.92;100984.69;3598471;39;20373;-75
2021/07/28 10:16:31;;;;;;;6.03;5.50;;;;;;;23.99;50.01;100986.97;3599397;39;20232;-76
2021/07/28 10:18:58;;;;;;;6.53;5.87;;;;;;;23.85;50.16;100993.53;3598303;39;20263;-76
2021/07/28 10:21:25;;;;;;;6.73;5.77;;;;;;;23.85;49.30;100993.53;3598640;39;20213;-76
2021/07/28 10:23:50;;;;;;;6.00;5.40;;;;;;;23.72;50.56;100987.84;3599170;39;20225;-75
2021/07/28 10:26:17;;;;;;;6.17;5.33;;;;;;;23.69;50.54;100990.56;3598465;39;20227;-76
2021/07/28 10:28:46;;;;;;;6.13;5.53;;;;;;;23.69;51.00;100990.56;3598529;39;20252;-76
2021/07/28 10:31:17;;;;;;;6.67;5.70;;;;;;;23.73;51.90;100988.69;3598657;39;20240;-76
2021/07/28 10:33:51;;;;;;;6.47;5.87;;;;;;;23.81;51.88;100989.31;3598754;39;20288;-76
2021/07/28 10:36:37;;;;;;;6.70;6.03;;;;;;;24.09;51.30;100995.38;3598562;40;20607;-76
2021/07/28 10:39:02;;;;;;;6.73;6.10;;;;;;;24.05;50.71;100981.53;3593847;39;20241;-76
2021/07/28 10:41:36;;;;;;;6.50;5.90;;;;;;;23.96;51.38;100989.69;3598353;39;20227;-76
2021/07/28 10:44:19;;;;;;;6.70;5.97;;;;;;;23.82;51.22;100991.00;3598811;40;20243;-77
2021/07/28 10:46:56;;;;;;;6.60;6.00;;;;;;;23.81;51.77;100982.28;3598482;39;20254;-76
2021/07/28 10:49:37;;;;;;;6.50;5.90;;;;;;;23.88;51.56;100980.34;3598893;39;20262;-76
2021/07/28 10:52:09;;;;;;;6.37;5.77;;;;;;;23.89;52.45;100976.84;3598880;39;20232;-77
2021/07/28 10:54:47;;;;;;;6.17;5.57;;;;;;;24.13;52.15;100969.03;3598934;39;20213;-76
2021/07/28 10:57:33;;;;;;;6.00;5.50;;;;;;;24.18;51.04;100966.28;3592542;39;20242;-77
2021/07/28 11:00:08;;;;;;;5.73;5.23;;;;;;;23.94;52.68;100970.56;3572483;40;20236;-76
2021/07/28 11:02:55;;;;;;;5.80;5.30;;;;;;;24.34;52.50;100963.06;3593733;40;20216;-77
2021/07/28 11:05:23;;;;;;;5.68;5.18;;;;;;;24.65;50.16;100961.13;3597714;40;20220;-76
2021/07/28 11:08:03;;;;;;;6.32;5.72;;;;;;;24.39;49.51;100955.91;3595157;39;20286;-76
2021/07/28 11:10:36;;;;;;;6.72;5.25;;;;;;;24.38;50.34;100962.06;3598116;40;20579;-76
2021/07/28 11:13:12;;;;;;;6.07;5.03;;;;;;;24.42;50.11;100960.19;3598348;40;20228;-76
2021/07/28 11:15:39;;;;;;;5.23;4.70;;;;;;;24.23;50.07;100952.13;3598826;40;20248;-76
2021/07/28 11:18:05;;;;;;;5.30;4.80;;;;;;;24.29;49.87;100951.91;3599481;39;20294;-77
2021/07/28 11:20:33;;;;;;;6.87;5.17;;;;;;;24.37;50.03;100944.66;3598926;39;20591;-76
2021/07/28 11:23:27;;;;;;;7.60;5.33;;;;;;;24.28;50.03;100941.47;3599076;39;20237;-76
2021/07/28 11:26:00;;;;;;;7.00;5.10;;;;;;;24.15;51.01;100940.19;3598806;39;20242;-76
2021/07/28 11:28:26;;;;;;;5.53;4.97;;;;;;;24.33;51.02;100929.94;3598547;39;20251;-77
2021/07/28 11:31:02;;;;;;;5.28;4.78;;;;;;;24.46;50.40;100938.22;3598238;39;20597;-76
2021/07/28 11:33:29;;;;;;;8.00;5.40;;;;;;;24.52;49.56;100937.97;3598187;39;20260;-76
2021/07/28 11:35:56;;;;;;;5.23;4.77;;;;;;;24.55;50.75;100925.66;3596701;39;20225;-76
2021/07/28 11:38:27;;;;;;;5.03;4.50;;;;;;;24.92;49.97;100925.16;3598267;39;20484;-76
2021/07/28 11:40:55;;;;;;;4.80;4.30;;;;;;;25.14;48.82;100911.16;3598275;39;20261;-76
2021/07/28 11:43:28;;;;;;;4.97;4.47;;;;;;;25.40;47.11;100904.91;3598311;40;20236;-76
2021/07/28 11:46:02;;;;;;;4.88;4.45;;;;;;;25.55;47.91;100914.81;3597378;40;20237;-76
2021/07/28 11:48:44;;;;;;;4.85;4.07;;;;;;;25.72;46.68;100899.22;3599143;40;20643;-77
2021/07/28 11:51:27;;;;;;;5.00;4.05;;;;;;;25.64;46.33;100907.41;3598212;39;20236;-77
2021/07/28 11:54:12;;;;;;;4.32;3.92;;;;;;;25.89;46.65;100904.63;3594627;40;20216;-76
2021/07/28 11:56:46;;;;;;;4.45;4.05;;;;;;;25.95;46.11;100912.25;3603045;39;20209;-76
2021/07/28 11:59:12;;;;;;;4.72;4.22;;;;;;;25.78;44.79;100910.31;3597851;40;20228;-76
2021/07/28 12:01:47;;;;;;;4.30;3.90;;;;;;;25.68;46.43;100910.75;3598031;39;20228;-76
2021/07/28 12:04:17;;;;;;;4.20;3.80;;;;;;;25.72;45.73;100922.81;3598300;39;20239;-77
2021/07/28 12:06:42;;;;;;;4.00;3.65;;;;;;;25.77;47.07;100911.22;3598179;39;20228;-77
2021/07/28 12:09:15;;;;;;;4.53;4.13;;;;;;;25.99;45.25;100909.44;3598170;39;20329;-77
2021/07/28 12:12:01;;;;;;;4.40;3.78;;;;;;;25.87;44.60;100907.28;3600873;39;20220;-76
2021/07/28 12:14:40;;;;;;;4.38;3.97;;;;;;;25.83;45.52;100910.13;3601200;40;20522;-77
2021/07/28 12:17:20;;;;;;;3.83;3.53;;;;;;;25.57;45.17;100910.34;3601181;39;20231;-77
2021/07/28 12:19:57;;;;;;;4.15;3.75;;;;;;;25.30;47.01;100904.44;3598121;39;20224;-76
2021/07/28 12:22:29;;;;;;;4.00;3.60;;;;;;;25.17;47.54;100911.06;3598244;39;20247;-76
2021/07/28 12:25:12;;;;;;;3.92;3.63;;;;;;;25.21;47.62;100907.41;3598006;39;20229;-76
2021/07/28 12:27:53;;;;;;;3.95;3.55;;;;;;;25.32;47.56;100910.47;3598104;39;20248;-76
2021/07/28 12:30:20;;;;;;;4.13;3.72;;;;;;;25.55;46.85;100901.69;3598210;39;20225;-76
2021/07/28 12:32:59;;;;;;;3.72;3.40;;;;;;;25.56;46.40;100896.34;3598266;39;20658;-76
2021/07/28 12:35:41;;;;;;;4.85;3.90;;;;;;;25.55;46.29;100897.28;3597949;39;20242;-77
2021/07/28 12:38:19;;;;;;;5.97;4.07;;;;;;;25.48;47.89;100892.34;3598019;39;20344;-76
2021/07/28 12:40:48;;;;;;;5.20;4.32;;;;;;;25.30;46.79;100895.72;3597944;39;20228;-77
2021/07/28 12:43:14;;;;;;;3.97;3.63;;;;;;;25.41;46.98;100893.53;3597978;39;20225;-76
2021/07/28 12:45:40;;;;;;;4.90;4.20;;;;;;;25.52;47.29;100902.69;3598284;39;20220;-77
2021/07/28 12:48:06;;;;;;;3.67;3.38;;;;;;;25.39;47.17;100893.59;3597694;39;20256;-77